createdAt,value
2022-12-14T00:01:57.933Z,97476.62
2022-12-14T00:04:25.887Z,97475.72
2022-12-14T00:06:53.969Z,97475.70
2022-12-14T00:09:21.900Z,97476.60
2022-12-14T00:11:51.201Z,97478.92
2022-12-14T00:14:19.243Z,97476.98
2022-12-14T00:16:48.217Z,97480.60
2022-12-14T00:19:16.333Z,97481.79
2022-12-14T00:21:44.256Z,97484.52
2022-12-14T00:24:12.239Z,97484.34
2022-12-14T00:26:40.125Z,97488.06
2022-12-14T00:29:08.184Z,97490.48
2022-12-14T00:31:36.583Z,97495.05
2022-12-14T00:34:04.677Z,97491.08
2022-12-14T00:36:32.791Z,97489.00
2022-12-14T00:39:00.786Z,97487.95
2022-12-14T00:41:28.808Z,97486.13
2022-12-14T00:43:57.205Z,97488.75
2022-12-14T00:46:25.355Z,97490.27
2022-12-14T00:48:53.643Z,97489.77
2022-12-14T00:51:23.464Z,97487.55
2022-12-14T00:53:51.434Z,97485.46
2022-12-14T00:56:19.390Z,97483.84
2022-12-14T00:58:51.917Z,97487.09
2022-12-14T01:01:20.806Z,97486.45
2022-12-14T01:03:49.425Z,97485.55
2022-12-14T01:06:22.736Z,97483.97
2022-12-14T01:08:50.814Z,97487.97
2022-12-14T01:11:18.819Z,97489.89
2022-12-14T01:13:49.506Z,97491.11
2022-12-14T01:16:18.298Z,97490.85
2022-12-14T01:18:46.441Z,97494.21
2022-12-14T01:21:22.941Z,97495.19
2022-12-14T01:23:59.499Z,97493.63
2022-12-14T01:26:30.451Z,97497.07
2022-12-14T01:29:00.181Z,97498.73
2022-12-14T01:31:31.161Z,97496.56
2022-12-14T01:34:00.036Z,97489.30
2022-12-14T01:36:30.952Z,97487.98
2022-12-14T01:39:01.310Z,97483.95
2022-12-14T01:41:42.134Z,97485.44
2022-12-14T01:44:10.229Z,97479.83
2022-12-14T01:47:12.730Z,97478.41
2022-12-14T01:50:10.745Z,97477.69
2022-12-14T01:52:44.122Z,97476.91
2022-12-14T01:55:37.813Z,97477.58
2022-12-14T01:58:21.196Z,97476.00
2022-12-14T02:00:53.694Z,97472.79
2022-12-14T02:03:24.475Z,97476.58
2022-12-14T02:06:01.274Z,97470.96
2022-12-14T02:08:30.158Z,97470.66
2022-12-14T02:10:59.026Z,97462.12
2022-12-14T02:13:32.324Z,97458.14
2022-12-14T02:16:01.247Z,97458.56
2022-12-14T02:18:31.615Z,97457.65
2022-12-14T02:20:59.501Z,97457.90
2022-12-14T02:23:41.290Z,97464.42
2022-12-14T02:26:40.413Z,97460.72
2022-12-14T02:29:31.333Z,97452.96
2022-12-14T02:32:19.941Z,97454.38
2022-12-14T02:34:53.734Z,97450.51
2022-12-14T02:37:49.130Z,97447.14
2022-12-14T02:40:38.920Z,97454.70
2022-12-14T02:43:43.325Z,97456.52
2022-12-14T02:46:20.368Z,97454.92
2022-12-14T02:48:57.412Z,97451.11
2022-12-14T02:51:40.580Z,97449.50
2022-12-14T02:54:38.259Z,97447.52
2022-12-14T02:57:32.646Z,97451.19
2022-12-14T03:00:03.596Z,97452.41
2022-12-14T03:02:35.791Z,97446.67
2022-12-14T03:05:07.080Z,97444.23
2022-12-14T03:07:45.199Z,97447.52
2022-12-14T03:10:32.616Z,97446.80
2022-12-14T03:13:06.579Z,97446.36
2022-12-14T03:15:38.408Z,97447.80
2022-12-14T03:18:08.191Z,97440.58
2022-12-14T03:20:38.286Z,97436.11
2022-12-14T03:23:15.570Z,97436.52
2022-12-14T03:25:58.708Z,97432.63
2022-12-14T03:28:32.676Z,97434.14
2022-12-14T03:31:09.209Z,97435.38
2022-12-14T03:33:39.002Z,97436.18
2022-12-14T03:36:19.936Z,97436.68
2022-12-14T03:38:51.029Z,97434.84
2022-12-14T03:41:34.598Z,97435.40
2022-12-14T03:44:16.218Z,97434.42
2022-12-14T03:47:13.165Z,97433.21
2022-12-14T03:50:00.804Z,97438.08
2022-12-14T03:52:42.954Z,97436.63
2022-12-14T03:55:29.848Z,97437.34
2022-12-14T03:58:16.221Z,97432.04
2022-12-14T04:01:11.509Z,97430.71
2022-12-14T04:03:49.183Z,97427.19
2022-12-14T04:06:26.069Z,97433.82
2022-12-14T04:09:11.904Z,97424.45
2022-12-14T04:12:06.611Z,97420.30
2022-12-14T04:15:03.840Z,97423.92
2022-12-14T04:17:55.419Z,97415.90
2022-12-14T04:20:42.273Z,97420.01
2022-12-14T04:23:16.681Z,97419.02
2022-12-14T04:26:05.557Z,97421.51
2022-12-14T04:29:12.154Z,97419.48
2022-12-14T04:31:45.764Z,97413.54
2022-12-14T04:34:23.334Z,97411.90
2022-12-14T04:36:56.819Z,97403.95
2022-12-14T04:39:31.158Z,97403.11
2022-12-14T04:42:02.545Z,97406.04
2022-12-14T04:44:40.229Z,97408.40
2022-12-14T04:47:11.348Z,97408.77
2022-12-14T04:49:46.800Z,97404.62
2022-12-14T04:52:45.381Z,97400.98
2022-12-14T04:55:30.334Z,97400.16
2022-12-14T04:58:12.420Z,97389.92
2022-12-14T05:00:58.904Z,97391.80
2022-12-14T05:03:34.569Z,97391.70
2022-12-14T05:06:11.348Z,97389.55
2022-12-14T05:09:06.401Z,97386.92
2022-12-14T05:11:59.243Z,97387.04
2022-12-14T05:14:46.914Z,97387.33
2022-12-14T05:17:16.525Z,97392.16
2022-12-14T05:19:49.814Z,97395.92
2022-12-14T05:22:19.025Z,97392.77
2022-12-14T05:24:47.021Z,97395.25
2022-12-14T05:27:15.150Z,97396.21
2022-12-14T05:29:43.178Z,97401.08
2022-12-14T05:32:14.151Z,97404.98
2022-12-14T05:34:42.201Z,97409.60
2022-12-14T05:37:16.395Z,97412.27
2022-12-14T05:39:46.523Z,97410.24
2022-12-14T05:42:14.565Z,97410.23
2022-12-14T05:44:43.502Z,97406.42
2022-12-14T05:47:11.483Z,97405.72
2022-12-14T05:49:40.289Z,97406.86
2022-12-14T05:52:08.549Z,97414.55
2022-12-14T05:54:36.611Z,97409.14
2022-12-14T05:57:06.987Z,97408.70
2022-12-14T05:59:35.318Z,97407.50
2022-12-14T06:02:03.436Z,97410.08
2022-12-14T06:04:31.623Z,97410.06
2022-12-14T06:06:59.849Z,97405.23
2022-12-14T06:09:27.900Z,97400.58
2022-12-14T06:11:55.877Z,97399.05
2022-12-14T06:14:25.416Z,97401.89
2022-12-14T06:16:53.555Z,97404.59
2022-12-14T06:19:21.937Z,97406.98
2022-12-14T06:21:50.350Z,97404.64
2022-12-14T06:24:18.420Z,97409.44
2022-12-14T06:26:47.043Z,97405.20
2022-12-14T06:29:19.682Z,97395.94
2022-12-14T06:31:49.098Z,97390.19
2022-12-14T06:34:22.226Z,97408.52
2022-12-14T06:36:52.950Z,97418.22
2022-12-14T06:39:21.052Z,97407.80
2022-12-14T06:41:51.156Z,97401.41
2022-12-14T06:44:19.294Z,97398.73
2022-12-14T06:46:47.967Z,97398.78
2022-12-14T06:49:20.049Z,97401.11
2022-12-14T06:51:49.230Z,97397.98
2022-12-14T06:54:18.683Z,97389.34
2022-12-14T06:56:48.573Z,97390.40
2022-12-14T06:59:17.556Z,97392.52
2022-12-14T07:01:46.249Z,97394.70
2022-12-14T07:04:21.640Z,97397.04
2022-12-14T07:06:52.782Z,97397.30
2022-12-14T07:09:21.514Z,97387.31
2022-12-14T07:11:51.588Z,97386.10
2022-12-14T07:14:21.459Z,97389.19
2022-12-14T07:16:50.335Z,97385.49
2022-12-14T07:19:18.738Z,97384.68
2022-12-14T07:21:46.797Z,97381.26
2022-12-14T07:24:15.507Z,97377.22
2022-12-14T07:26:43.682Z,97379.02
2022-12-14T07:29:12.321Z,97374.49
2022-12-14T07:31:41.035Z,97380.43
2022-12-14T07:34:13.044Z,97384.97
2022-12-14T07:36:43.307Z,97388.61
2022-12-14T07:39:15.728Z,97388.30
2022-12-14T07:41:47.100Z,97388.39
2022-12-14T07:44:20.260Z,97391.13
2022-12-14T07:46:48.475Z,97384.30
2022-12-14T07:49:16.877Z,97382.91
2022-12-14T07:51:46.716Z,97385.12
2022-12-14T07:54:14.859Z,97384.66
2022-12-14T07:56:43.726Z,97380.45
2022-12-14T07:59:17.697Z,97381.57
2022-12-14T08:01:46.122Z,97379.73
2022-12-14T08:04:19.304Z,97383.01
2022-12-14T08:06:54.925Z,97380.48
2022-12-14T08:09:22.807Z,97370.88
2022-12-14T08:11:52.188Z,97368.31
2022-12-14T08:14:20.464Z,97358.66
2022-12-14T08:16:50.466Z,97359.92
2022-12-14T08:19:21.534Z,97360.64
2022-12-14T08:21:49.555Z,97361.08
2022-12-14T08:24:20.110Z,97352.91
2022-12-14T08:26:49.904Z,97348.86
2022-12-14T08:29:22.529Z,97345.86
2022-12-14T08:31:50.724Z,97340.72
2022-12-14T08:34:23.062Z,97337.63
2022-12-14T08:36:51.528Z,97337.00
2022-12-14T08:39:19.826Z,97332.35
2022-12-14T08:41:50.023Z,97335.92
2022-12-14T08:44:19.039Z,97345.64
2022-12-14T08:46:48.208Z,97332.79
2022-12-14T08:49:18.782Z,97317.02
2022-12-14T08:51:46.807Z,97309.65
2022-12-14T08:54:15.398Z,97308.48
2022-12-14T08:56:43.587Z,97302.84
2022-12-14T08:59:29.921Z,97305.48
2022-12-14T09:02:01.342Z,97293.41
2022-12-14T09:04:29.809Z,97287.44
2022-12-14T09:06:58.138Z,97279.54
2022-12-14T09:09:27.390Z,97268.81
2022-12-14T09:11:55.569Z,97271.69
2022-12-14T09:14:24.097Z,97268.00
2022-12-14T09:16:53.731Z,97266.88
2022-12-14T09:19:22.026Z,97259.80
2022-12-14T09:21:51.857Z,97257.98
2022-12-14T09:24:20.637Z,97256.18
2022-12-14T09:26:52.883Z,97252.04
2022-12-14T09:29:21.088Z,97246.94
2022-12-14T09:31:49.370Z,97235.23
2022-12-14T09:34:17.631Z,97230.70
2022-12-14T09:36:46.007Z,97225.52
2022-12-14T09:39:15.165Z,97222.54
2022-12-14T09:42:19.484Z,97223.03
2022-12-14T09:45:17.837Z,97209.67
2022-12-14T09:48:04.295Z,97212.13
2022-12-14T09:50:33.878Z,97210.31
2022-12-14T09:53:06.472Z,97211.80
2022-12-14T09:55:50.248Z,97210.77
2022-12-14T09:58:30.254Z,97206.37
2022-12-14T10:01:23.431Z,97197.21
2022-12-14T10:04:28.954Z,97191.04
2022-12-14T10:07:07.303Z,97199.29
2022-12-14T10:09:55.737Z,97201.16
2022-12-14T10:12:32.522Z,97193.95
2022-12-14T10:15:09.434Z,97190.15
2022-12-14T10:18:06.987Z,97187.31
2022-12-14T10:20:48.545Z,97178.45
2022-12-14T10:23:23.927Z,97170.29
2022-12-14T10:26:01.557Z,97163.08
2022-12-14T10:28:33.415Z,97163.70
2022-12-14T10:31:05.498Z,97161.63
2022-12-14T10:33:33.583Z,97160.85
2022-12-14T10:36:30.969Z,97157.27
2022-12-14T10:39:02.201Z,97145.77
2022-12-14T10:41:36.503Z,97139.80
2022-12-14T10:44:05.189Z,97136.96
2022-12-14T10:46:59.727Z,97128.95
2022-12-14T10:49:45.037Z,97123.04
2022-12-14T10:52:19.369Z,97122.81
2022-12-14T10:54:54.825Z,97122.14
2022-12-14T10:57:29.418Z,97113.88
2022-12-14T11:00:09.481Z,97108.44
2022-12-14T11:02:45.855Z,97110.92
2022-12-14T11:05:45.025Z,97111.43
2022-12-14T11:08:38.813Z,97105.38
2022-12-14T11:11:13.970Z,97099.16
2022-12-14T11:14:06.244Z,97094.12
2022-12-14T11:16:37.280Z,97084.05
2022-12-14T11:19:15.912Z,97084.25
2022-12-14T11:21:44.600Z,97081.52
2022-12-14T11:24:27.992Z,97082.77
2022-12-14T11:27:01.620Z,97078.78
2022-12-14T11:29:35.776Z,97074.33
2022-12-14T11:32:06.020Z,97067.52
2022-12-14T11:34:43.947Z,97066.18
2022-12-14T11:37:22.490Z,97056.40
2022-12-14T11:40:00.385Z,97046.64
2022-12-14T11:42:29.472Z,97045.52
2022-12-14T11:45:26.973Z,97047.41
2022-12-14T11:48:17.386Z,97044.84
2022-12-14T11:50:47.844Z,97045.83
2022-12-14T11:53:19.757Z,97040.70
2022-12-14T11:55:59.203Z,97042.08
2022-12-14T11:58:51.683Z,97035.30
2022-12-14T12:01:27.438Z,97027.98
2022-12-14T12:03:59.341Z,97026.07
2022-12-14T12:06:30.079Z,97017.94
2022-12-14T12:09:02.812Z,97015.11
2022-12-14T12:11:34.364Z,97007.97
2022-12-14T12:14:35.646Z,97000.59
2022-12-14T12:17:18.158Z,96997.75
2022-12-14T12:19:51.625Z,96999.77
2022-12-14T12:22:20.859Z,96995.41
2022-12-14T12:25:29.726Z,96994.07
2022-12-14T12:28:11.528Z,96993.38
2022-12-14T12:30:43.300Z,96995.27
2022-12-14T12:33:22.847Z,96989.06
2022-12-14T12:35:55.317Z,96996.64
2022-12-14T12:38:37.712Z,96994.26
2022-12-14T12:41:27.526Z,96993.54
2022-12-14T12:44:27.244Z,96996.80
2022-12-14T12:47:26.836Z,97002.58
2022-12-14T12:50:13.406Z,97006.22
2022-12-14T12:53:39.099Z,97012.73
2022-12-14T12:56:25.510Z,97020.48
2022-12-14T12:58:55.122Z,97023.21
2022-12-14T13:01:31.643Z,97027.38
2022-12-14T13:04:05.966Z,97028.09
2022-12-14T13:06:44.906Z,97022.30
2022-12-14T13:09:42.287Z,97025.77
2022-12-14T13:12:39.318Z,97028.89
2022-12-14T13:15:34.402Z,97029.55
2022-12-14T13:18:12.281Z,97033.42
2022-12-14T13:20:42.805Z,97033.54
2022-12-14T13:23:43.777Z,97033.83
2022-12-14T13:26:56.730Z,97036.13
2022-12-14T13:29:31.261Z,97036.05
2022-12-14T13:32:18.156Z,97036.02
2022-12-14T13:35:04.653Z,97033.11
2022-12-14T13:37:48.047Z,97028.29
2022-12-14T13:40:41.623Z,97029.82
2022-12-14T13:43:34.026Z,97024.95
2022-12-14T13:46:24.056Z,97020.09
2022-12-14T13:48:56.950Z,97017.04
2022-12-14T13:51:38.276Z,97010.27
2022-12-14T13:54:20.713Z,97007.88
2022-12-14T13:57:09.870Z,97001.09
2022-12-14T13:59:43.980Z,96997.25
2022-12-14T14:02:29.643Z,97003.16
2022-12-14T14:05:16.427Z,97003.48
2022-12-14T14:08:32.298Z,96995.33
2022-12-14T14:11:38.366Z,96985.65
2022-12-14T14:14:39.014Z,96988.40
2022-12-14T14:17:26.987Z,96979.60
2022-12-14T14:20:05.140Z,96978.50
2022-12-14T14:22:33.109Z,96980.89
2022-12-14T14:25:09.483Z,96980.11
2022-12-14T14:27:50.274Z,96979.35
2022-12-14T14:30:28.855Z,96974.89
2022-12-14T14:33:19.967Z,96969.48
2022-12-14T14:35:49.683Z,96974.05
2022-12-14T14:38:29.628Z,96968.92
2022-12-14T14:41:19.203Z,96965.86
2022-12-14T14:43:52.586Z,96962.41
2022-12-14T14:46:39.443Z,96961.52
2022-12-14T14:49:23.256Z,96955.27
2022-12-14T14:51:51.403Z,96958.88
2022-12-14T14:57:37.624Z,96951.17
2022-12-14T15:00:10.896Z,96950.14
2022-12-14T15:02:43.319Z,96942.74
2022-12-14T15:08:38.603Z,96927.09
2022-12-14T15:11:16.112Z,96926.83
2022-12-14T15:13:55.187Z,96931.59
2022-12-14T15:16:29.498Z,96924.35
2022-12-14T15:19:20.757Z,96919.20
2022-12-14T15:21:51.935Z,96918.77
2022-12-14T15:24:21.863Z,96923.64
2022-12-14T15:26:50.302Z,96920.81
2022-12-14T15:29:27.842Z,96913.63
2022-12-14T15:32:00.660Z,96908.00
2022-12-14T15:34:28.912Z,96904.34
2022-12-14T15:36:58.017Z,96903.22
2022-12-14T15:39:43.683Z,96902.21
2022-12-14T15:42:17.174Z,96894.13
2022-12-14T15:44:56.252Z,96888.67
2022-12-14T15:47:29.951Z,96879.63
2022-12-14T15:50:32.768Z,96871.57
2022-12-14T15:53:14.717Z,96866.39
2022-12-14T15:55:43.903Z,96866.27
2022-12-14T15:58:36.269Z,96864.21
2022-12-14T16:01:47.450Z,96865.75
2022-12-14T16:04:26.245Z,96871.91
2022-12-14T16:07:18.117Z,96873.38
2022-12-14T16:09:53.782Z,96874.52
2022-12-14T16:12:45.379Z,96880.60
2022-12-14T16:15:28.495Z,96887.11
2022-12-14T16:18:02.332Z,96889.94
2022-12-14T16:20:36.044Z,96883.84
2022-12-14T16:23:13.681Z,96894.55
2022-12-14T16:25:58.280Z,96894.23
2022-12-14T16:28:29.601Z,96890.59
2022-12-14T16:31:24.314Z,96887.02
2022-12-14T16:34:19.987Z,96882.61
2022-12-14T16:37:08.461Z,96881.94
2022-12-14T16:39:47.622Z,96881.84
2022-12-14T16:42:25.147Z,96886.38
2022-12-14T16:44:54.246Z,96875.90
2022-12-14T16:48:01.781Z,96867.13
2022-12-14T16:50:55.450Z,96874.63
2022-12-14T16:53:26.351Z,96872.84
2022-12-14T16:56:16.371Z,96870.22
2022-12-14T16:59:22.915Z,96867.63
2022-12-14T17:01:52.508Z,96870.29
2022-12-14T17:04:21.368Z,96871.73
2022-12-14T17:06:52.832Z,96875.04
2022-12-14T17:09:26.840Z,96877.72
2022-12-14T17:11:58.285Z,96883.90
2022-12-14T17:14:27.756Z,96874.95
2022-12-14T17:17:01.896Z,96867.91
2022-12-14T17:19:33.638Z,96863.80
2022-12-14T17:22:04.485Z,96869.35
2022-12-14T17:24:36.036Z,96866.30
2022-12-14T17:27:05.027Z,96866.23
2022-12-14T17:29:35.709Z,96867.92
2022-12-14T17:32:04.935Z,96862.77
2022-12-14T17:34:47.294Z,96867.72
2022-12-14T17:37:24.382Z,96863.98
2022-12-14T17:39:53.244Z,96860.82
2022-12-14T17:42:22.398Z,96846.55
2022-12-14T17:44:56.689Z,96841.48
2022-12-14T17:47:25.156Z,96834.10
2022-12-14T17:49:53.399Z,96835.34
2022-12-14T17:52:27.259Z,96835.61
2022-12-14T17:54:55.251Z,96834.84
2022-12-14T17:57:27.305Z,96833.41
2022-12-14T18:00:15.045Z,96829.79
2022-12-14T18:02:45.861Z,96827.38
2022-12-14T18:05:20.228Z,96824.92
2022-12-14T18:07:49.486Z,96824.42
2022-12-14T18:10:19.693Z,96826.27
2022-12-14T18:12:48.992Z,96827.08
2022-12-14T18:15:21.418Z,96825.09
2022-12-14T18:17:51.877Z,96820.64
2022-12-14T18:20:20.777Z,96817.52
2022-12-14T18:22:50.079Z,96815.46
2022-12-14T18:25:30.950Z,96809.54
2022-12-14T18:28:01.211Z,96803.30
2022-12-14T18:30:36.827Z,96796.88
2022-12-14T18:33:16.795Z,96792.02
2022-12-14T18:35:46.588Z,96783.27
2022-12-14T18:38:14.772Z,96776.13
2022-12-14T18:40:49.953Z,96773.76
2022-12-14T18:43:24.959Z,96770.92
2022-12-14T18:45:54.336Z,96765.67
2022-12-14T18:48:24.168Z,96761.49
2022-12-14T18:50:54.921Z,96753.02
2022-12-14T18:53:24.946Z,96746.97
2022-12-14T18:55:53.694Z,96741.55
2022-12-14T18:58:27.344Z,96741.48
2022-12-14T19:00:58.956Z,96733.62
2022-12-14T19:03:31.413Z,96730.23
2022-12-14T19:06:34.976Z,96731.32
2022-12-14T19:08:57.277Z,96725.45
2022-12-14T19:11:42.152Z,96720.56
2022-12-14T19:14:11.532Z,96715.17
2022-12-14T19:16:40.271Z,96716.21
2022-12-14T19:19:08.430Z,96712.66
2022-12-14T19:21:36.471Z,96710.58
2022-12-14T19:24:08.847Z,96710.37
2022-12-14T19:26:38.961Z,96704.30
2022-12-14T19:29:09.394Z,96697.18
2022-12-14T19:31:37.662Z,96700.63
2022-12-14T19:34:07.995Z,96706.02
2022-12-14T19:36:36.191Z,96704.96
2022-12-14T19:39:05.047Z,96703.08
2022-12-14T19:41:33.606Z,96697.47
2022-12-14T19:44:01.653Z,96690.77
2022-12-14T19:46:30.480Z,96686.98
2022-12-14T19:49:00.751Z,96683.69
2022-12-14T19:51:30.116Z,96678.66
2022-12-14T19:53:58.190Z,96680.51
2022-12-14T19:56:26.298Z,96679.09
2022-12-14T19:58:57.741Z,96675.76
2022-12-14T20:01:32.689Z,96675.48
2022-12-14T20:04:02.041Z,96673.19
2022-12-14T20:06:30.400Z,96677.58
2022-12-14T20:09:01.298Z,96672.53
2022-12-14T20:11:29.455Z,96670.86
2022-12-14T20:14:02.913Z,96666.87
2022-12-14T20:16:31.782Z,96663.84
2022-12-14T20:19:01.702Z,96659.21
2022-12-14T20:21:31.480Z,96655.48
2022-12-14T20:24:00.641Z,96655.23
2022-12-14T20:26:30.205Z,96648.78
2022-12-14T20:29:05.110Z,96650.91
2022-12-14T20:31:34.575Z,96650.73
2022-12-14T20:34:05.042Z,96641.12
2022-12-14T20:36:33.132Z,96634.50
2022-12-14T20:39:01.847Z,96634.36
2022-12-14T20:41:33.114Z,96634.23
2022-12-14T20:44:02.328Z,96632.02
2022-12-14T20:46:36.890Z,96627.05
2022-12-14T20:49:07.938Z,96630.63
2022-12-14T20:51:38.192Z,96629.29
2022-12-14T20:54:08.839Z,96629.59
2022-12-14T20:56:37.674Z,96634.41
2022-12-14T20:59:07.189Z,96631.88
2022-12-14T21:01:40.803Z,96627.23
2022-12-14T21:04:09.018Z,96629.02
2022-12-14T21:06:39.796Z,96627.64
2022-12-14T21:09:12.140Z,96631.64
2022-12-14T21:12:04.568Z,96630.29
2022-12-14T21:14:35.131Z,96633.31
2022-12-14T21:17:05.201Z,96637.74
2022-12-14T21:19:34.502Z,96634.59
2022-12-14T21:22:05.441Z,96632.70
2022-12-14T21:25:01.751Z,96629.20
2022-12-14T21:27:26.885Z,96628.23
2022-12-14T21:29:55.535Z,96626.41
2022-12-14T21:32:23.720Z,96622.10
2022-12-14T21:34:54.741Z,96624.02
2022-12-14T21:37:23.388Z,96622.30
2022-12-14T21:39:54.934Z,96623.61
2022-12-14T21:42:24.708Z,96626.52
2022-12-14T21:44:55.452Z,96618.21
2022-12-14T21:47:28.994Z,96616.16
2022-12-14T21:49:57.582Z,96615.73
2022-12-14T21:52:27.492Z,96612.58
2022-12-14T21:54:56.076Z,96614.64
2022-12-14T21:57:50.375Z,96613.73
2022-12-14T22:00:20.078Z,96610.51
2022-12-14T22:02:48.457Z,96603.06
2022-12-14T22:05:18.558Z,96596.46
2022-12-14T22:07:47.232Z,96594.97
2022-12-14T22:10:21.226Z,96592.40
2022-12-14T22:12:52.541Z,96596.27
2022-12-14T22:15:20.606Z,96600.39
2022-12-14T22:17:51.923Z,96592.32
2022-12-14T22:20:19.985Z,96584.48
2022-12-14T22:22:49.469Z,96576.60
2022-12-14T22:25:17.425Z,96581.70
2022-12-14T22:27:49.750Z,96592.43
2022-12-14T22:30:18.956Z,96603.63
2022-12-14T22:32:48.457Z,96613.09
2022-12-14T22:35:16.485Z,96619.20
2022-12-14T22:37:44.445Z,96613.14
2022-12-14T22:40:12.590Z,96611.76
2022-12-14T22:42:40.470Z,96607.20
2022-12-14T22:45:09.126Z,96610.35
2022-12-14T22:47:37.037Z,96612.17
2022-12-14T22:50:05.978Z,96616.40
2022-12-14T22:52:34.110Z,96620.14
2022-12-14T22:55:02.079Z,96618.33
2022-12-14T22:57:30.864Z,96612.54
2022-12-14T23:00:07.861Z,96610.90
2022-12-14T23:02:36.056Z,96605.93
2022-12-14T23:05:06.873Z,96602.98
2022-12-14T23:07:35.317Z,96608.98
2022-12-14T23:10:23.333Z,96612.84
2022-12-14T23:13:09.947Z,96610.16
2022-12-14T23:15:56.171Z,96621.77
2022-12-14T23:18:42.690Z,96634.06
2022-12-14T23:21:30.486Z,96629.02
2022-12-14T23:24:17.036Z,96615.48
2022-12-14T23:27:09.129Z,96609.01
2022-12-14T23:29:56.673Z,96601.83
2022-12-14T23:32:43.297Z,96599.54
2022-12-14T23:35:29.745Z,96605.57
2022-12-14T23:38:22.439Z,96617.45
2022-12-14T23:41:08.997Z,96621.77
2022-12-14T23:43:55.726Z,96625.98
2022-12-14T23:46:42.458Z,96630.31
2022-12-14T23:49:29.128Z,96628.32
2022-12-14T23:52:15.880Z,96630.13
2022-12-14T23:55:04.955Z,96629.15
2022-12-14T23:57:51.477Z,96625.30
